This is the latest recevied weather packets stored in our database for station/object LRTR. If no packets are shown the sender has not sent any weather packets the latest 10 day(s).
| Time | Temp. | Humidity | Pressure | Rain* | Wind** | Luminosity | Snow |
|---|---|---|---|---|---|---|---|
| 1777789086 | 10° C | 67% | 1023 hPa | - | - | - | - |
| 1777788185 | 10° C | 67% | 1023 hPa | - | - | - | - |
| 1777787285 | 8.89° C | 71% | 1022 hPa | - | - | - | - |
| 1777786385 | 8.89° C | 71% | 1022 hPa | - | - | - | - |
| 1777785485 | 7.22° C | 87% | 1022 hPa | - | - | - | - |
| 1777784585 | 7.22° C | 87% | 1022 hPa | - | - | - | - |
| 1777783685 | 5° C | 87% | 1022 hPa | - | - | - | - |
| 1777782786 | 5° C | 87% | 1022 hPa | - | - | - | - |
| 1777781885 | 2.78° C | 93% | 1022 hPa | - | - | - | - |
| 1777781008 | 2.78° C | 93% | 1022 hPa | - | - | - | - |
| 1777780087 | 5° C | 87% | 1021 hPa | - | - | - | - |
| 1777779185 | 5° C | 87% | 1021 hPa | - | - | - | - |
| 1777778285 | 6.11° C | 81% | 1021 hPa | - | - | - | - |
| 1777777385 | 6.11° C | 81% | 1021 hPa | - | - | - | - |
| 1777776500 | 3.89° C | 87% | 1021 hPa | - | - | - | - |
| 1777775585 | 3.89° C | 87% | 1021 hPa | - | - | - | - |
| 1777774685 | 5° C | 81% | 1021 hPa | - | - | - | - |
| 1777773785 | 5° C | 81% | 1021 hPa | - | - | - | - |
| 1777772885 | 5° C | 81% | 1021 hPa | - | - | - | - |
| 1777771985 | 5° C | 81% | 1021 hPa | - | - | - | - |
| 1777771085 | 5° C | 81% | 1021 hPa | - | - | - | - |
| 1777770185 | 5° C | 81% | 1021 hPa | - | - | - | - |
| 1777769285 | 5° C | 76% | 1021 hPa | - | - | - | - |
| 1777768385 | 5° C | 76% | 1021 hPa | - | - | - | - |
| 1777767485 | 5° C | 76% | 1021 hPa | - | - | - | - |
* Rain since midnight (hover to see other rain measurements)
** Current wind speed in m/s (hover to see current wind gust speed)